createdAt,value
2023-12-14T00:01:11.423Z,8.87
2023-12-14T00:06:34.441Z,8.75
2023-12-14T00:11:57.452Z,8.80
2023-12-14T00:17:21.814Z,8.78
2023-12-14T00:22:44.658Z,8.56
2023-12-14T00:28:07.528Z,8.49
2023-12-14T00:33:32.010Z,8.57
2023-12-14T00:38:56.113Z,8.75
2023-12-14T00:44:18.936Z,8.68
2023-12-14T00:49:43.209Z,8.65
2023-12-14T00:55:07.065Z,8.53
2023-12-14T01:00:31.781Z,8.41
2023-12-14T01:05:56.030Z,8.34
2023-12-14T01:11:18.943Z,8.47
2023-12-14T01:16:41.969Z,8.36
2023-12-14T01:22:06.180Z,8.49
2023-12-14T01:27:28.982Z,8.40
2023-12-14T01:32:51.832Z,8.00
2023-12-14T01:38:16.012Z,8.03
2023-12-14T01:43:39.175Z,8.13
2023-12-14T01:49:02.165Z,7.60
2023-12-14T01:54:26.413Z,7.58
2023-12-14T01:59:49.231Z,7.48
2023-12-14T02:05:12.488Z,7.49
2023-12-14T02:10:36.953Z,7.36
2023-12-14T02:15:59.781Z,7.02
2023-12-14T02:21:22.740Z,7.10
2023-12-14T02:27:01.912Z,6.93
2023-12-14T02:32:26.855Z,7.09
2023-12-14T02:37:50.058Z,7.03
2023-12-14T02:43:14.601Z,6.91
2023-12-14T02:48:37.755Z,6.81
2023-12-14T02:54:00.645Z,7.21
2023-12-14T02:59:24.836Z,6.96
2023-12-14T03:04:47.767Z,7.09
2023-12-14T03:10:11.323Z,6.90
2023-12-14T03:15:35.464Z,7.02
2023-12-14T03:20:58.388Z,7.13
2023-12-14T03:26:21.306Z,6.75
2023-12-14T03:31:45.972Z,6.63
2023-12-14T03:37:08.865Z,6.67
2023-12-14T03:42:32.090Z,6.83
2023-12-14T03:47:56.572Z,6.75
2023-12-14T03:53:19.573Z,6.60
2023-12-14T03:58:42.569Z,6.61
2023-12-14T04:04:07.112Z,6.73
2023-12-14T04:09:30.056Z,6.97
2023-12-14T04:14:53.003Z,6.84
2023-12-14T04:20:17.828Z,6.34
2023-12-14T04:25:40.788Z,6.58
2023-12-14T04:31:03.926Z,6.84
2023-12-14T04:36:28.123Z,6.67
2023-12-14T04:41:51.343Z,6.50
2023-12-14T04:47:14.341Z,6.46
2023-12-14T04:52:38.936Z,6.62
2023-12-14T04:58:01.994Z,6.48
2023-12-14T05:03:25.453Z,6.23
2023-12-14T05:08:49.826Z,6.26
2023-12-14T05:14:12.724Z,6.40
2023-12-14T05:19:37.435Z,6.29
2023-12-14T05:25:01.997Z,6.27
2023-12-14T05:30:24.828Z,6.41
2023-12-14T05:35:47.681Z,6.07
2023-12-14T05:41:12.301Z,6.27
2023-12-14T05:46:35.295Z,6.03
2023-12-14T05:52:00.953Z,5.74
2023-12-14T05:57:26.121Z,5.82
2023-12-14T06:02:49.092Z,5.91
2023-12-14T06:08:12.080Z,5.89
2023-12-14T06:13:36.816Z,6.12
2023-12-14T06:18:59.848Z,5.70
2023-12-14T06:24:23.565Z,5.88
2023-12-14T06:29:47.726Z,5.89
2023-12-14T06:35:10.749Z,6.13
2023-12-14T06:40:33.682Z,5.89
2023-12-14T06:45:57.951Z,6.11
2023-12-14T06:51:20.967Z,5.95
2023-12-14T06:56:44.178Z,6.00
2023-12-14T07:02:08.935Z,6.10
2023-12-14T07:07:31.732Z,6.20
2023-12-14T07:12:54.638Z,5.93
2023-12-14T07:18:19.030Z,6.05
2023-12-14T07:23:42.963Z,6.21
2023-12-14T07:29:05.868Z,5.71
2023-12-14T07:34:30.254Z,5.73
2023-12-14T07:39:53.206Z,5.58
2023-12-14T07:45:16.135Z,5.52
2023-12-14T07:50:40.368Z,5.45
2023-12-14T07:56:04.071Z,5.46
2023-12-14T08:01:27.116Z,5.62
2023-12-14T08:06:51.339Z,5.55
2023-12-14T08:12:14.360Z,5.43
2023-12-14T08:17:37.870Z,5.73
2023-12-14T08:23:02.305Z,5.82
2023-12-14T08:28:25.291Z,5.57
2023-12-14T08:33:50.453Z,5.63
2023-12-14T08:39:15.619Z,5.61
2023-12-14T08:44:40.772Z,5.83
2023-12-14T08:50:03.814Z,5.41
2023-12-14T08:55:28.060Z,5.62
2023-12-14T09:00:53.841Z,5.67
2023-12-14T09:06:19.461Z,5.70
2023-12-14T09:11:44.309Z,5.88
2023-12-14T09:17:07.302Z,6.11
2023-12-14T09:22:30.404Z,5.64
2023-12-14T09:27:54.720Z,5.65
2023-12-14T09:33:17.877Z,6.00
2023-12-14T09:38:41.037Z,5.83
2023-12-14T09:44:07.989Z,5.52
2023-12-14T09:49:32.478Z,5.74
2023-12-14T09:54:56.625Z,5.62
2023-12-14T10:00:37.083Z,5.57
2023-12-14T10:06:03.020Z,5.59
2023-12-14T10:11:26.318Z,5.45
2023-12-14T10:16:52.455Z,5.32
2023-12-14T10:22:18.560Z,5.67
2023-12-14T10:27:41.485Z,5.56
2023-12-14T10:33:05.911Z,5.55
2023-12-14T10:38:31.549Z,5.89
2023-12-14T10:44:13.341Z,6.04
2023-12-14T10:49:40.493Z,5.82
2023-12-14T10:55:08.304Z,5.93
2023-12-14T11:00:31.288Z,5.68
2023-12-14T11:06:06.591Z,5.34
2023-12-14T11:11:39.864Z,5.65
2023-12-14T11:17:08.206Z,5.69
2023-12-14T11:22:32.592Z,5.54
2023-12-14T11:27:56.130Z,5.43
2023-12-14T11:33:19.205Z,5.63
2023-12-14T11:38:45.103Z,5.85
2023-12-14T11:44:08.153Z,5.58
2023-12-14T11:49:33.192Z,5.62
2023-12-14T11:54:57.412Z,5.51
2023-12-14T12:00:24.973Z,5.73
2023-12-14T12:05:49.934Z,6.06
2023-12-14T12:11:18.422Z,5.51
2023-12-14T12:16:41.388Z,5.68
2023-12-14T12:22:05.075Z,6.02
2023-12-14T12:27:29.420Z,6.07
2023-12-14T12:32:53.333Z,6.02
2023-12-14T12:38:17.641Z,5.85
2023-12-14T12:43:42.015Z,6.05
2023-12-14T12:49:05.702Z,5.98
2023-12-14T12:54:28.634Z,5.62
2023-12-14T12:59:52.798Z,5.81
2023-12-14T13:05:18.153Z,6.16
2023-12-14T13:10:41.907Z,6.25
2023-12-14T13:16:07.097Z,5.78
2023-12-14T13:21:30.001Z,5.53
2023-12-14T13:26:53.008Z,5.35
2023-12-14T13:32:17.322Z,5.75
2023-12-14T13:37:40.850Z,5.46
2023-12-14T13:43:11.085Z,5.49
2023-12-14T13:48:35.578Z,5.80
2023-12-14T13:53:58.588Z,5.66
2023-12-14T13:59:21.786Z,5.42
2023-12-14T14:04:48.846Z,5.29
2023-12-14T14:10:13.090Z,5.25
2023-12-14T14:15:36.123Z,5.24
2023-12-14T14:21:02.120Z,5.17
2023-12-14T14:26:25.252Z,5.18
2023-12-14T14:31:48.224Z,5.21
2023-12-14T14:37:12.405Z,5.33
2023-12-14T14:42:38.421Z,5.42
2023-12-14T14:48:01.775Z,5.12
2023-12-14T14:53:26.185Z,5.29
2023-12-14T14:58:49.439Z,5.56
2023-12-14T15:04:12.461Z,5.85
2023-12-14T15:09:37.056Z,5.76
2023-12-14T15:14:59.954Z,6.00
2023-12-14T15:20:23.132Z,5.83
2023-12-14T15:25:47.404Z,6.16
2023-12-14T15:31:10.647Z,6.09
2023-12-14T15:36:35.531Z,6.03
2023-12-14T15:41:59.870Z,5.58
2023-12-14T15:47:23.864Z,5.45
2023-12-14T15:52:47.125Z,5.60
2023-12-14T15:58:12.897Z,5.54
2023-12-14T16:03:36.105Z,5.72
2023-12-14T16:08:58.997Z,5.93
2023-12-14T16:14:23.274Z,5.94
2023-12-14T16:19:49.253Z,5.63
2023-12-14T16:25:12.711Z,5.89
2023-12-14T16:30:37.156Z,5.80
2023-12-14T16:36:00.046Z,5.92
2023-12-14T16:41:23.189Z,5.88
2023-12-14T16:46:47.571Z,5.79
2023-12-14T16:52:11.397Z,5.85
2023-12-14T16:57:34.347Z,5.71
2023-12-14T17:02:58.482Z,5.89
2023-12-14T17:08:23.550Z,5.66
2023-12-14T17:13:46.499Z,5.74
2023-12-14T17:19:10.769Z,5.82
2023-12-14T17:24:33.742Z,5.86
2023-12-14T17:29:56.590Z,6.04
2023-12-14T17:35:21.979Z,6.13
2023-12-14T17:40:44.982Z,6.09
2023-12-14T17:46:08.032Z,5.90
2023-12-14T17:51:32.219Z,6.18
2023-12-14T17:56:55.112Z,5.86
2023-12-14T18:02:18.327Z,5.70
2023-12-14T18:07:43.006Z,5.31
2023-12-14T18:13:06.099Z,5.42
2023-12-14T18:18:29.212Z,5.62
2023-12-14T18:23:56.672Z,5.72
2023-12-14T18:29:19.887Z,6.04
2023-12-14T18:34:43.100Z,6.42
2023-12-14T18:40:08.912Z,6.43
2023-12-14T18:45:31.760Z,6.13
2023-12-14T18:50:54.690Z,6.17
2023-12-14T18:56:19.369Z,6.01
2023-12-14T19:01:42.457Z,5.76
2023-12-14T19:07:05.636Z,5.62
2023-12-14T19:12:30.002Z,5.74
2023-12-14T19:17:53.697Z,5.94
2023-12-14T19:23:17.337Z,5.55
2023-12-14T19:28:41.672Z,5.59
2023-12-14T19:34:05.097Z,5.55
2023-12-14T19:39:28.432Z,5.55
2023-12-14T19:44:52.599Z,5.86
2023-12-14T19:50:15.637Z,5.42
2023-12-14T19:55:38.553Z,5.69
2023-12-14T20:01:03.129Z,6.22
2023-12-14T20:06:26.185Z,6.03
2023-12-14T20:11:51.032Z,6.21
2023-12-14T20:17:15.161Z,6.01
2023-12-14T20:22:38.151Z,5.77
2023-12-14T20:28:02.984Z,5.90
2023-12-14T20:33:27.172Z,6.00
2023-12-14T20:38:50.085Z,5.65
2023-12-14T20:44:12.953Z,5.47
2023-12-14T20:49:37.345Z,5.46
2023-12-14T20:55:00.314Z,5.51
2023-12-14T21:00:23.734Z,5.52
2023-12-14T21:05:49.491Z,5.84
2023-12-14T21:11:12.666Z,5.76
2023-12-14T21:16:35.619Z,5.69
2023-12-14T21:22:00.402Z,5.67
2023-12-14T21:27:41.105Z,5.46
2023-12-14T21:33:04.723Z,5.57
2023-12-14T21:38:32.118Z,5.60
2023-12-14T21:43:58.074Z,5.76
2023-12-14T21:49:21.346Z,5.84
2023-12-14T21:54:46.011Z,5.51
2023-12-14T22:00:10.179Z,5.83
2023-12-14T22:05:33.340Z,5.51
2023-12-14T22:10:57.998Z,5.20
2023-12-14T22:16:20.860Z,5.39
2023-12-14T22:21:43.794Z,5.72
2023-12-14T22:27:08.907Z,5.49
2023-12-14T22:32:32.202Z,5.88
2023-12-14T22:37:55.564Z,5.69
2023-12-14T22:43:19.753Z,5.36
2023-12-14T22:48:43.088Z,5.63
2023-12-14T22:54:06.335Z,5.73
2023-12-14T22:59:30.606Z,5.64
2023-12-14T23:04:53.578Z,5.56
2023-12-14T23:10:16.530Z,6.00
2023-12-14T23:15:40.800Z,6.15
2023-12-14T23:21:03.720Z,6.05
2023-12-14T23:26:26.674Z,6.14
2023-12-14T23:31:51.066Z,5.81
2023-12-14T23:37:13.935Z,5.91
2023-12-14T23:42:36.962Z,5.68
2023-12-14T23:48:01.426Z,5.43
2023-12-14T23:53:24.370Z,5.85
2023-12-14T23:58:47.305Z,5.97
